sensor_id;sensor_type;location;lat;lon;timestamp;P1;durP1;ratioP1;P2;durP2;ratioP2
18274;SDS011;19470;49.322;7.218;2023-08-12T00:01:21;5.00;;;3.33;;
18274;SDS011;19470;49.322;7.218;2023-08-12T00:03:50;12.50;;;3.90;;
18274;SDS011;19470;49.322;7.218;2023-08-12T00:06:16;5.55;;;4.07;;
18274;SDS011;19470;49.322;7.218;2023-08-12T00:08:43;7.43;;;4.00;;
18274;SDS011;19470;49.322;7.218;2023-08-12T00:11:11;6.53;;;4.03;;
18274;SDS011;19470;49.322;7.218;2023-08-12T00:13:37;6.13;;;4.22;;
18274;SDS011;19470;49.322;7.218;2023-08-12T00:16:04;9.07;;;4.50;;
18274;SDS011;19470;49.322;7.218;2023-08-12T00:18:31;6.50;;;4.00;;
18274;SDS011;19470;49.322;7.218;2023-08-12T00:21:03;4.85;;;3.65;;
18274;SDS011;19470;49.322;7.218;2023-08-12T00:23:32;6.10;;;3.88;;
18274;SDS011;19470;49.322;7.218;2023-08-12T00:25:59;9.75;;;4.75;;
18274;SDS011;19470;49.322;7.218;2023-08-12T00:28:26;7.15;;;4.45;;
18274;SDS011;19470;49.322;7.218;2023-08-12T00:30:53;7.82;;;4.78;;
18274;SDS011;19470;49.322;7.218;2023-08-12T00:33:19;12.13;;;4.50;;
18274;SDS011;19470;49.322;7.218;2023-08-12T00:35:46;11.00;;;4.95;;
18274;SDS011;19470;49.322;7.218;2023-08-12T00:38:13;7.40;;;4.22;;
18274;SDS011;19470;49.322;7.218;2023-08-12T00:40:39;6.60;;;4.28;;
18274;SDS011;19470;49.322;7.218;2023-08-12T00:43:06;7.22;;;3.92;;
18274;SDS011;19470;49.322;7.218;2023-08-12T00:45:41;7.53;;;4.68;;
18274;SDS011;19470;49.322;7.218;2023-08-12T00:48:08;6.55;;;4.68;;
18274;SDS011;19470;49.322;7.218;2023-08-12T00:50:36;8.32;;;4.70;;
18274;SDS011;19470;49.322;7.218;2023-08-12T00:56:10;8.07;;;5.10;;
18274;SDS011;19470;49.322;7.218;2023-08-12T00:58:37;11.07;;;6.15;;
18274;SDS011;19470;49.322;7.218;2023-08-12T01:01:05;12.70;;;6.82;;
18274;SDS011;19470;49.322;7.218;2023-08-12T01:03:32;9.80;;;6.82;;
18274;SDS011;19470;49.322;7.218;2023-08-12T01:05:59;15.20;;;8.13;;
18274;SDS011;19470;49.322;7.218;2023-08-12T01:08:27;19.23;;;8.38;;
18274;SDS011;19470;49.322;7.218;2023-08-12T01:10:59;14.82;;;8.80;;
18274;SDS011;19470;49.322;7.218;2023-08-12T01:13:34;17.27;;;8.52;;
18274;SDS011;19470;49.322;7.218;2023-08-12T01:16:10;13.27;;;7.57;;
18274;SDS011;19470;49.322;7.218;2023-08-12T01:18:39;15.70;;;8.63;;
18274;SDS011;19470;49.322;7.218;2023-08-12T01:21:07;15.68;;;8.90;;
18274;SDS011;19470;49.322;7.218;2023-08-12T01:23:41;15.13;;;9.65;;
18274;SDS011;19470;49.322;7.218;2023-08-12T01:26:09;16.13;;;9.38;;
18274;SDS011;19470;49.322;7.218;2023-08-12T01:28:35;14.82;;;9.70;;
18274;SDS011;19470;49.322;7.218;2023-08-12T01:31:02;14.13;;;9.27;;
18274;SDS011;19470;49.322;7.218;2023-08-12T01:33:36;15.40;;;10.13;;
18274;SDS011;19470;49.322;7.218;2023-08-12T01:36:09;19.05;;;10.10;;
18274;SDS011;19470;49.322;7.218;2023-08-12T01:38:40;16.67;;;10.18;;
18274;SDS011;19470;49.322;7.218;2023-08-12T01:41:09;15.38;;;9.25;;
18274;SDS011;19470;49.322;7.218;2023-08-12T01:43:49;17.25;;;9.43;;
18274;SDS011;19470;49.322;7.218;2023-08-12T01:46:17;12.23;;;9.13;;
18274;SDS011;19470;49.322;7.218;2023-08-12T01:48:43;12.55;;;9.15;;
18274;SDS011;19470;49.322;7.218;2023-08-12T01:51:10;10.50;;;8.60;;
18274;SDS011;19470;49.322;7.218;2023-08-12T01:53:37;14.00;;;8.50;;
18274;SDS011;19470;49.322;7.218;2023-08-12T01:56:05;11.80;;;8.48;;
18274;SDS011;19470;49.322;7.218;2023-08-12T01:58:31;13.18;;;7.97;;
18274;SDS011;19470;49.322;7.218;2023-08-12T02:00:58;15.80;;;9.15;;
18274;SDS011;19470;49.322;7.218;2023-08-12T02:03:24;14.40;;;8.52;;
18274;SDS011;19470;49.322;7.218;2023-08-12T02:05:51;11.77;;;8.32;;
18274;SDS011;19470;49.322;7.218;2023-08-12T02:08:17;10.07;;;8.13;;
18274;SDS011;19470;49.322;7.218;2023-08-12T02:10:44;12.43;;;7.82;;
18274;SDS011;19470;49.322;7.218;2023-08-12T02:13:12;12.43;;;8.77;;
18274;SDS011;19470;49.322;7.218;2023-08-12T02:15:39;13.88;;;9.48;;
18274;SDS011;19470;49.322;7.218;2023-08-12T02:18:05;13.98;;;8.85;;
18274;SDS011;19470;49.322;7.218;2023-08-12T02:20:32;12.50;;;9.15;;
18274;SDS011;19470;49.322;7.218;2023-08-12T02:22:58;14.15;;;9.27;;
18274;SDS011;19470;49.322;7.218;2023-08-12T02:25:25;13.93;;;9.13;;
18274;SDS011;19470;49.322;7.218;2023-08-12T02:27:51;13.45;;;8.40;;
18274;SDS011;19470;49.322;7.218;2023-08-12T02:30:19;12.95;;;8.48;;
18274;SDS011;19470;49.322;7.218;2023-08-12T02:32:45;17.73;;;8.70;;
18274;SDS011;19470;49.322;7.218;2023-08-12T02:35:12;14.10;;;8.80;;
18274;SDS011;19470;49.322;7.218;2023-08-12T02:37:38;12.73;;;9.50;;
18274;SDS011;19470;49.322;7.218;2023-08-12T02:40:05;12.43;;;8.18;;
18274;SDS011;19470;49.322;7.218;2023-08-12T02:42:32;11.55;;;8.30;;
18274;SDS011;19470;49.322;7.218;2023-08-12T02:44:59;11.23;;;8.40;;
18274;SDS011;19470;49.322;7.218;2023-08-12T02:47:27;13.25;;;7.97;;
18274;SDS011;19470;49.322;7.218;2023-08-12T02:49:54;11.30;;;7.18;;
18274;SDS011;19470;49.322;7.218;2023-08-12T02:52:20;8.43;;;6.80;;
18274;SDS011;19470;49.322;7.218;2023-08-12T02:54:47;16.70;;;14.10;;
18274;SDS011;19470;49.322;7.218;2023-08-12T02:57:13;13.38;;;8.50;;
18274;SDS011;19470;49.322;7.218;2023-08-12T02:59:40;70.57;;;51.60;;
18274;SDS011;19470;49.322;7.218;2023-08-12T03:02:06;52.22;;;37.97;;
18274;SDS011;19470;49.322;7.218;2023-08-12T03:04:34;10.77;;;8.25;;
18274;SDS011;19470;49.322;7.218;2023-08-12T03:07:01;12.07;;;8.45;;
18274;SDS011;19470;49.322;7.218;2023-08-12T03:09:27;14.52;;;9.15;;
18274;SDS011;19470;49.322;7.218;2023-08-12T03:11:54;8.35;;;7.28;;
18274;SDS011;19470;49.322;7.218;2023-08-12T03:14:21;12.02;;;7.05;;
18274;SDS011;19470;49.322;7.218;2023-08-12T03:16:47;12.75;;;6.85;;
18274;SDS011;19470;49.322;7.218;2023-08-12T03:19:14;12.13;;;7.88;;
18274;SDS011;19470;49.322;7.218;2023-08-12T03:21:41;16.48;;;9.00;;
18274;SDS011;19470;49.322;7.218;2023-08-12T03:24:08;13.45;;;8.73;;
18274;SDS011;19470;49.322;7.218;2023-08-12T03:26:34;14.15;;;11.45;;
18274;SDS011;19470;49.322;7.218;2023-08-12T03:29:01;12.68;;;8.60;;
18274;SDS011;19470;49.322;7.218;2023-08-12T03:31:27;11.57;;;8.75;;
18274;SDS011;19470;49.322;7.218;2023-08-12T03:33:54;10.63;;;7.72;;
18274;SDS011;19470;49.322;7.218;2023-08-12T03:36:20;11.55;;;7.13;;
18274;SDS011;19470;49.322;7.218;2023-08-12T03:38:48;8.50;;;7.28;;
18274;SDS011;19470;49.322;7.218;2023-08-12T03:41:15;10.35;;;6.60;;
18274;SDS011;19470;49.322;7.218;2023-08-12T03:43:41;11.38;;;6.88;;
18274;SDS011;19470;49.322;7.218;2023-08-12T03:46:08;8.13;;;7.03;;
18274;SDS011;19470;49.322;7.218;2023-08-12T03:48:34;8.50;;;7.05;;
18274;SDS011;19470;49.322;7.218;2023-08-12T03:51:00;9.40;;;7.18;;
18274;SDS011;19470;49.322;7.218;2023-08-12T03:53:27;9.48;;;7.43;;
18274;SDS011;19470;49.322;7.218;2023-08-12T03:55:55;11.32;;;7.18;;
18274;SDS011;19470;49.322;7.218;2023-08-12T03:58:21;9.43;;;6.97;;
18274;SDS011;19470;49.322;7.218;2023-08-12T04:00:48;42.60;;;35.22;;
18274;SDS011;19470;49.322;7.218;2023-08-12T04:03:14;11.75;;;6.90;;
18274;SDS011;19470;49.322;7.218;2023-08-12T04:05:46;9.48;;;6.78;;
18274;SDS011;19470;49.322;7.218;2023-08-12T04:08:14;9.88;;;6.45;;
18274;SDS011;19470;49.322;7.218;2023-08-12T04:10:43;9.75;;;6.70;;
18274;SDS011;19470;49.322;7.218;2023-08-12T04:13:12;13.52;;;7.30;;
18274;SDS011;19470;49.322;7.218;2023-08-12T04:15:38;13.35;;;8.02;;
18274;SDS011;19470;49.322;7.218;2023-08-12T04:18:05;18.85;;;7.80;;
18274;SDS011;19470;49.322;7.218;2023-08-12T04:20:32;20.90;;;7.75;;
18274;SDS011;19470;49.322;7.218;2023-08-12T04:22:58;10.55;;;7.63;;
18274;SDS011;19470;49.322;7.218;2023-08-12T04:25:25;14.68;;;7.82;;
18274;SDS011;19470;49.322;7.218;2023-08-12T04:27:52;22.85;;;8.35;;
18274;SDS011;19470;49.322;7.218;2023-08-12T04:30:20;18.65;;;8.52;;
18274;SDS011;19470;49.322;7.218;2023-08-12T04:32:47;11.02;;;7.68;;
18274;SDS011;19470;49.322;7.218;2023-08-12T04:35:13;28.98;;;7.95;;
18274;SDS011;19470;49.322;7.218;2023-08-12T04:37:42;31.27;;;9.23;;
18274;SDS011;19470;49.322;7.218;2023-08-12T04:40:09;23.00;;;9.18;;
18274;SDS011;19470;49.322;7.218;2023-08-12T04:42:36;41.28;;;9.30;;
18274;SDS011;19470;49.322;7.218;2023-08-12T04:45:03;42.20;;;10.02;;
18274;SDS011;19470;49.322;7.218;2023-08-12T04:47:31;25.05;;;10.15;;
18274;SDS011;19470;49.322;7.218;2023-08-12T04:49:58;16.92;;;10.07;;
18274;SDS011;19470;49.322;7.218;2023-08-12T04:52:24;13.63;;;9.50;;
18274;SDS011;19470;49.322;7.218;2023-08-12T04:54:52;16.13;;;10.20;;
18274;SDS011;19470;49.322;7.218;2023-08-12T04:57:19;17.73;;;11.05;;
18274;SDS011;19470;49.322;7.218;2023-08-12T04:59:45;19.52;;;12.18;;
18274;SDS011;19470;49.322;7.218;2023-08-12T05:02:12;14.60;;;8.93;;
18274;SDS011;19470;49.322;7.218;2023-08-12T05:04:39;316.23;;;241.75;;
18274;SDS011;19470;49.322;7.218;2023-08-12T05:07:06;18.33;;;12.75;;
18274;SDS011;19470;49.322;7.218;2023-08-12T05:09:33;14.68;;;9.65;;
18274;SDS011;19470;49.322;7.218;2023-08-12T05:11:59;13.23;;;9.10;;
18274;SDS011;19470;49.322;7.218;2023-08-12T05:14:26;13.75;;;8.85;;
18274;SDS011;19470;49.322;7.218;2023-08-12T05:16:52;10.05;;;7.13;;
18274;SDS011;19470;49.322;7.218;2023-08-12T05:19:18;9.27;;;7.13;;
18274;SDS011;19470;49.322;7.218;2023-08-12T05:21:46;12.18;;;7.75;;
18274;SDS011;19470;49.322;7.218;2023-08-12T05:24:13;9.15;;;7.00;;
18274;SDS011;19470;49.322;7.218;2023-08-12T05:26:40;8.02;;;7.18;;
18274;SDS011;19470;49.322;7.218;2023-08-12T05:29:06;7.47;;;6.75;;
18274;SDS011;19470;49.322;7.218;2023-08-12T05:31:33;12.25;;;8.38;;
18274;SDS011;19470;49.322;7.218;2023-08-12T05:33:59;13.68;;;9.38;;
18274;SDS011;19470;49.322;7.218;2023-08-12T05:36:26;9.93;;;7.45;;
18274;SDS011;19470;49.322;7.218;2023-08-12T05:38:54;9.75;;;7.07;;
18274;SDS011;19470;49.322;7.218;2023-08-12T05:41:20;10.20;;;7.35;;
18274;SDS011;19470;49.322;7.218;2023-08-12T05:43:47;8.00;;;6.63;;
18274;SDS011;19470;49.322;7.218;2023-08-12T05:46:14;10.68;;;6.63;;
18274;SDS011;19470;49.322;7.218;2023-08-12T05:48:41;9.18;;;6.55;;
18274;SDS011;19470;49.322;7.218;2023-08-12T05:51:07;6.95;;;6.05;;
18274;SDS011;19470;49.322;7.218;2023-08-12T05:53:35;8.93;;;5.68;;
18274;SDS011;19470;49.322;7.218;2023-08-12T05:56:03;8.45;;;6.05;;
18274;SDS011;19470;49.322;7.218;2023-08-12T05:58:30;8.85;;;5.75;;
18274;SDS011;19470;49.322;7.218;2023-08-12T06:00:56;8.30;;;6.32;;
18274;SDS011;19470;49.322;7.218;2023-08-12T06:03:23;7.57;;;6.85;;
18274;SDS011;19470;49.322;7.218;2023-08-12T06:05:49;8.52;;;7.30;;
18274;SDS011;19470;49.322;7.218;2023-08-12T06:08:16;9.73;;;6.53;;
18274;SDS011;19470;49.322;7.218;2023-08-12T06:10:42;9.38;;;7.22;;
18274;SDS011;19470;49.322;7.218;2023-08-12T06:13:10;10.75;;;6.97;;
18274;SDS011;19470;49.322;7.218;2023-08-12T06:15:37;10.35;;;8.32;;
18274;SDS011;19470;49.322;7.218;2023-08-12T06:18:04;11.98;;;9.07;;
18274;SDS011;19470;49.322;7.218;2023-08-12T06:20:31;11.00;;;9.48;;
18274;SDS011;19470;49.322;7.218;2023-08-12T06:22:58;12.30;;;9.45;;
18274;SDS011;19470;49.322;7.218;2023-08-12T06:25:24;13.43;;;9.90;;
18274;SDS011;19470;49.322;7.218;2023-08-12T06:27:51;10.98;;;9.00;;
18274;SDS011;19470;49.322;7.218;2023-08-12T06:30:18;10.32;;;8.35;;
18274;SDS011;19470;49.322;7.218;2023-08-12T06:32:45;10.55;;;8.98;;
18274;SDS011;19470;49.322;7.218;2023-08-12T06:35:11;10.35;;;8.27;;
18274;SDS011;19470;49.322;7.218;2023-08-12T06:37:38;8.20;;;7.38;;
18274;SDS011;19470;49.322;7.218;2023-08-12T06:40:06;8.25;;;6.72;;
18274;SDS011;19470;49.322;7.218;2023-08-12T06:42:33;8.70;;;7.35;;
18274;SDS011;19470;49.322;7.218;2023-08-12T06:44:59;13.00;;;8.68;;
18274;SDS011;19470;49.322;7.218;2023-08-12T06:47:30;13.15;;;9.45;;
18274;SDS011;19470;49.322;7.218;2023-08-12T06:49:57;14.05;;;9.88;;
18274;SDS011;19470;49.322;7.218;2023-08-12T06:52:23;10.98;;;8.93;;
18274;SDS011;19470;49.322;7.218;2023-08-12T06:54:50;14.15;;;10.23;;
18274;SDS011;19470;49.322;7.218;2023-08-12T06:57:16;15.70;;;10.48;;
18274;SDS011;19470;49.322;7.218;2023-08-12T06:59:43;14.88;;;11.45;;
18274;SDS011;19470;49.322;7.218;2023-08-12T07:02:09;16.23;;;11.43;;
18274;SDS011;19470;49.322;7.218;2023-08-12T07:04:37;13.00;;;10.02;;
18274;SDS011;19470;49.322;7.218;2023-08-12T07:07:04;13.07;;;10.45;;
18274;SDS011;19470;49.322;7.218;2023-08-12T07:09:30;15.52;;;11.23;;
18274;SDS011;19470;49.322;7.218;2023-08-12T07:11:56;14.45;;;11.20;;
18274;SDS011;19470;49.322;7.218;2023-08-12T07:14:23;15.63;;;11.13;;
18274;SDS011;19470;49.322;7.218;2023-08-12T07:16:50;13.93;;;11.57;;
18274;SDS011;19470;49.322;7.218;2023-08-12T07:19:17;15.45;;;11.05;;
18274;SDS011;19470;49.322;7.218;2023-08-12T07:21:45;12.05;;;10.75;;
18274;SDS011;19470;49.322;7.218;2023-08-12T07:24:11;13.00;;;10.82;;
18274;SDS011;19470;49.322;7.218;2023-08-12T07:26:38;13.38;;;9.95;;
18274;SDS011;19470;49.322;7.218;2023-08-12T07:29:04;12.10;;;9.18;;
18274;SDS011;19470;49.322;7.218;2023-08-12T07:31:31;11.95;;;8.60;;
18274;SDS011;19470;49.322;7.218;2023-08-12T07:33:58;11.02;;;8.65;;
18274;SDS011;19470;49.322;7.218;2023-08-12T07:36:24;9.90;;;8.45;;
18274;SDS011;19470;49.322;7.218;2023-08-12T07:38:52;13.48;;;8.98;;
18274;SDS011;19470;49.322;7.218;2023-08-12T07:41:19;11.30;;;8.25;;
18274;SDS011;19470;49.322;7.218;2023-08-12T07:43:45;10.10;;;8.48;;
18274;SDS011;19470;49.322;7.218;2023-08-12T07:46:11;9.98;;;8.00;;
18274;SDS011;19470;49.322;7.218;2023-08-12T07:48:38;11.02;;;8.13;;
18274;SDS011;19470;49.322;7.218;2023-08-12T07:51:05;10.90;;;8.32;;
18274;SDS011;19470;49.322;7.218;2023-08-12T07:53:31;10.10;;;8.05;;
18274;SDS011;19470;49.322;7.218;2023-08-12T07:55:59;9.07;;;7.57;;
18274;SDS011;19470;49.322;7.218;2023-08-12T07:58:26;9.90;;;7.20;;
18274;SDS011;19470;49.322;7.218;2023-08-12T08:00:52;9.18;;;7.03;;
18274;SDS011;19470;49.322;7.218;2023-08-12T08:03:19;10.73;;;7.00;;
18274;SDS011;19470;49.322;7.218;2023-08-12T08:05:46;10.20;;;7.47;;
18274;SDS011;19470;49.322;7.218;2023-08-12T08:08:13;10.10;;;6.75;;
18274;SDS011;19470;49.322;7.218;2023-08-12T08:10:40;13.88;;;7.38;;
18274;SDS011;19470;49.322;7.218;2023-08-12T08:13:10;8.93;;;7.05;;
18274;SDS011;19470;49.322;7.218;2023-08-12T08:15:36;12.05;;;6.65;;
18274;SDS011;19470;49.322;7.218;2023-08-12T08:18:05;9.13;;;6.30;;
18274;SDS011;19470;49.322;7.218;2023-08-12T08:20:32;9.93;;;6.75;;
18274;SDS011;19470;49.322;7.218;2023-08-12T08:23:00;9.70;;;6.40;;
18274;SDS011;19470;49.322;7.218;2023-08-12T08:25:27;7.93;;;5.97;;
18274;SDS011;19470;49.322;7.218;2023-08-12T08:27:53;7.18;;;6.00;;
18274;SDS011;19470;49.322;7.218;2023-08-12T08:30:21;7.72;;;5.35;;
18274;SDS011;19470;49.322;7.218;2023-08-12T08:32:50;10.18;;;5.38;;
18274;SDS011;19470;49.322;7.218;2023-08-12T08:35:17;5.50;;;4.90;;
18274;SDS011;19470;49.322;7.218;2023-08-12T08:37:43;5.20;;;4.53;;
18274;SDS011;19470;49.322;7.218;2023-08-12T08:40:10;11.48;;;6.28;;
18274;SDS011;19470;49.322;7.218;2023-08-12T08:42:37;7.65;;;5.85;;
18274;SDS011;19470;49.322;7.218;2023-08-12T08:45:20;8.55;;;5.57;;
18274;SDS011;19470;49.322;7.218;2023-08-12T08:47:49;8.55;;;5.47;;
18274;SDS011;19470;49.322;7.218;2023-08-12T08:50:17;7.25;;;5.47;;
18274;SDS011;19470;49.322;7.218;2023-08-12T08:52:44;8.13;;;6.28;;
18274;SDS011;19470;49.322;7.218;2023-08-12T08:55:12;10.05;;;7.20;;
18274;SDS011;19470;49.322;7.218;2023-08-12T08:57:40;10.70;;;8.30;;
18274;SDS011;19470;49.322;7.218;2023-08-12T09:00:12;11.63;;;6.88;;
18274;SDS011;19470;49.322;7.218;2023-08-12T09:02:41;8.98;;;7.18;;
18274;SDS011;19470;49.322;7.218;2023-08-12T09:05:09;9.02;;;6.60;;
18274;SDS011;19470;49.322;7.218;2023-08-12T09:07:38;8.00;;;6.80;;
18274;SDS011;19470;49.322;7.218;2023-08-12T09:10:05;14.68;;;7.50;;
18274;SDS011;19470;49.322;7.218;2023-08-12T09:12:35;12.50;;;10.10;;
18274;SDS011;19470;49.322;7.218;2023-08-12T09:15:02;11.05;;;8.73;;
18274;SDS011;19470;49.322;7.218;2023-08-12T09:17:31;8.25;;;6.80;;
18274;SDS011;19470;49.322;7.218;2023-08-12T09:19:59;10.15;;;7.38;;
18274;SDS011;19470;49.322;7.218;2023-08-12T09:22:37;11.98;;;8.85;;
18274;SDS011;19470;49.322;7.218;2023-08-12T09:25:29;13.15;;;7.78;;
18274;SDS011;19470;49.322;7.218;2023-08-12T09:27:58;7.95;;;6.55;;
18274;SDS011;19470;49.322;7.218;2023-08-12T09:30:26;12.95;;;7.88;;
18274;SDS011;19470;49.322;7.218;2023-08-12T09:32:57;11.82;;;7.03;;
18274;SDS011;19470;49.322;7.218;2023-08-12T09:35:33;12.50;;;7.60;;
18274;SDS011;19470;49.322;7.218;2023-08-12T09:38:02;13.00;;;7.40;;
18274;SDS011;19470;49.322;7.218;2023-08-12T09:40:30;12.38;;;6.60;;
18274;SDS011;19470;49.322;7.218;2023-08-12T09:42:57;9.50;;;6.95;;
18274;SDS011;19470;49.322;7.218;2023-08-12T09:45:24;11.70;;;6.75;;
18274;SDS011;19470;49.322;7.218;2023-08-12T09:47:52;7.03;;;5.28;;
18274;SDS011;19470;49.322;7.218;2023-08-12T09:50:20;9.20;;;5.40;;
18274;SDS011;19470;49.322;7.218;2023-08-12T09:52:49;8.07;;;5.55;;
18274;SDS011;19470;49.322;7.218;2023-08-12T09:55:16;9.50;;;5.57;;
18274;SDS011;19470;49.322;7.218;2023-08-12T09:57:44;6.10;;;4.68;;
18274;SDS011;19470;49.322;7.218;2023-08-12T10:00:14;6.90;;;4.95;;
18274;SDS011;19470;49.322;7.218;2023-08-12T10:06:05;6.78;;;4.38;;
18274;SDS011;19470;49.322;7.218;2023-08-12T10:08:33;10.02;;;4.85;;
18274;SDS011;19470;49.322;7.218;2023-08-12T10:11:01;5.90;;;3.88;;
18274;SDS011;19470;49.322;7.218;2023-08-12T10:13:28;5.10;;;3.58;;
18274;SDS011;19470;49.322;7.218;2023-08-12T10:15:55;6.40;;;3.67;;
18274;SDS011;19470;49.322;7.218;2023-08-12T10:18:22;9.25;;;3.67;;
18274;SDS011;19470;49.322;7.218;2023-08-12T10:20:50;6.78;;;3.75;;
18274;SDS011;19470;49.322;7.218;2023-08-12T10:23:19;5.80;;;3.80;;
18274;SDS011;19470;49.322;7.218;2023-08-12T10:25:48;6.13;;;4.05;;
18274;SDS011;19470;49.322;7.218;2023-08-12T10:28:19;8.13;;;3.50;;
18274;SDS011;19470;49.322;7.218;2023-08-12T10:30:45;4.30;;;3.30;;
18274;SDS011;19470;49.322;7.218;2023-08-12T10:33:12;6.00;;;3.40;;
18274;SDS011;19470;49.322;7.218;2023-08-12T10:35:42;4.47;;;3.10;;
18274;SDS011;19470;49.322;7.218;2023-08-12T10:38:10;5.20;;;3.05;;
18274;SDS011;19470;49.322;7.218;2023-08-12T10:40:39;4.50;;;2.97;;
18274;SDS011;19470;49.322;7.218;2023-08-12T10:43:07;8.77;;;3.33;;
18274;SDS011;19470;49.322;7.218;2023-08-12T10:45:44;7.55;;;3.20;;
18274;SDS011;19470;49.322;7.218;2023-08-12T10:48:16;5.13;;;3.00;;
18274;SDS011;19470;49.322;7.218;2023-08-12T10:50:44;6.80;;;2.80;;
18274;SDS011;19470;49.322;7.218;2023-08-12T10:53:21;4.07;;;2.75;;
18274;SDS011;19470;49.322;7.218;2023-08-12T10:55:49;5.10;;;3.40;;
18274;SDS011;19470;49.322;7.218;2023-08-12T10:58:25;5.03;;;2.70;;
18274;SDS011;19470;49.322;7.218;2023-08-12T11:01:13;4.50;;;3.08;;
18274;SDS011;19470;49.322;7.218;2023-08-12T11:03:42;5.78;;;3.30;;
18274;SDS011;19470;49.322;7.218;2023-08-12T11:06:09;7.75;;;3.10;;
18274;SDS011;19470;49.322;7.218;2023-08-12T11:08:36;4.13;;;2.80;;
18274;SDS011;19470;49.322;7.218;2023-08-12T11:11:03;5.43;;;2.92;;
18274;SDS011;19470;49.322;7.218;2023-08-12T11:13:49;7.20;;;5.45;;
18274;SDS011;19470;49.322;7.218;2023-08-12T11:16:19;13.73;;;12.55;;
18274;SDS011;19470;49.322;7.218;2023-08-12T11:18:57;47.28;;;43.47;;
18274;SDS011;19470;49.322;7.218;2023-08-12T11:21:25;124.47;;;116.38;;
18274;SDS011;19470;49.322;7.218;2023-08-12T11:23:52;353.27;;;332.98;;
18274;SDS011;19470;49.322;7.218;2023-08-12T11:26:21;364.98;;;343.98;;
18274;SDS011;19470;49.322;7.218;2023-08-12T11:28:51;149.90;;;140.50;;
18274;SDS011;19470;49.322;7.218;2023-08-12T11:31:19;322.23;;;303.95;;
18274;SDS011;19470;49.322;7.218;2023-08-12T11:33:45;226.30;;;211.75;;
18274;SDS011;19470;49.322;7.218;2023-08-12T11:36:12;305.98;;;287.58;;
18274;SDS011;19470;49.322;7.218;2023-08-12T11:38:39;498.35;;;469.25;;
18274;SDS011;19470;49.322;7.218;2023-08-12T11:41:05;364.55;;;343.02;;
18274;SDS011;19470;49.322;7.218;2023-08-12T11:43:32;163.40;;;152.88;;
18274;SDS011;19470;49.322;7.218;2023-08-12T11:46:00;107.65;;;100.18;;
18274;SDS011;19470;49.322;7.218;2023-08-12T11:48:27;42.42;;;38.63;;
18274;SDS011;19470;49.322;7.218;2023-08-12T11:50:53;37.30;;;33.95;;
18274;SDS011;19470;49.322;7.218;2023-08-12T11:53:21;23.77;;;21.73;;
18274;SDS011;19470;49.322;7.218;2023-08-12T11:55:48;18.30;;;16.45;;
18274;SDS011;19470;49.322;7.218;2023-08-12T11:58:14;9.52;;;8.30;;
18274;SDS011;19470;49.322;7.218;2023-08-12T12:00:43;5.22;;;4.13;;
18274;SDS011;19470;49.322;7.218;2023-08-12T12:03:11;5.95;;;4.35;;
18274;SDS011;19470;49.322;7.218;2023-08-12T12:05:38;4.30;;;3.58;;
18274;SDS011;19470;49.322;7.218;2023-08-12T12:08:05;6.00;;;3.55;;
18274;SDS011;19470;49.322;7.218;2023-08-12T12:10:34;4.25;;;2.53;;
18274;SDS011;19470;49.322;7.218;2023-08-12T12:13:01;4.18;;;2.75;;
18274;SDS011;19470;49.322;7.218;2023-08-12T12:15:29;4.07;;;2.55;;
18274;SDS011;19470;49.322;7.218;2023-08-12T12:17:55;4.45;;;4.03;;
18274;SDS011;19470;49.322;7.218;2023-08-12T12:20:23;4.40;;;2.75;;
18274;SDS011;19470;49.322;7.218;2023-08-12T12:22:52;3.85;;;2.80;;
18274;SDS011;19470;49.322;7.218;2023-08-12T12:25:19;6.43;;;2.97;;
18274;SDS011;19470;49.322;7.218;2023-08-12T12:27:48;3.30;;;2.67;;
18274;SDS011;19470;49.322;7.218;2023-08-12T12:30:15;5.63;;;3.00;;
18274;SDS011;19470;49.322;7.218;2023-08-12T12:32:43;4.22;;;2.38;;
18274;SDS011;19470;49.322;7.218;2023-08-12T12:35:10;6.75;;;2.88;;
18274;SDS011;19470;49.322;7.218;2023-08-12T12:37:39;3.33;;;2.83;;
18274;SDS011;19470;49.322;7.218;2023-08-12T12:40:10;4.18;;;3.17;;
18274;SDS011;19470;49.322;7.218;2023-08-12T12:42:37;6.53;;;2.85;;
18274;SDS011;19470;49.322;7.218;2023-08-12T12:45:04;6.75;;;3.85;;
18274;SDS011;19470;49.322;7.218;2023-08-12T12:47:32;4.53;;;2.33;;
18274;SDS011;19470;49.322;7.218;2023-08-12T12:49:58;4.13;;;3.63;;
18274;SDS011;19470;49.322;7.218;2023-08-12T12:52:24;5.90;;;4.50;;
18274;SDS011;19470;49.322;7.218;2023-08-12T12:54:52;5.50;;;3.90;;
18274;SDS011;19470;49.322;7.218;2023-08-12T12:57:19;5.90;;;5.30;;
18274;SDS011;19470;49.322;7.218;2023-08-12T12:59:45;88.80;;;79.70;;
18274;SDS011;19470;49.322;7.218;2023-08-12T13:02:12;7.72;;;5.75;;
18274;SDS011;19470;49.322;7.218;2023-08-12T13:04:38;7.13;;;5.45;;
18274;SDS011;19470;49.322;7.218;2023-08-12T13:07:05;6.07;;;5.50;;
18274;SDS011;19470;49.322;7.218;2023-08-12T13:09:31;5.25;;;4.85;;
18274;SDS011;19470;49.322;7.218;2023-08-12T13:11:59;59.03;;;34.40;;
18274;SDS011;19470;49.322;7.218;2023-08-12T13:14:26;3.97;;;2.72;;
18274;SDS011;19470;49.322;7.218;2023-08-12T13:16:54;11.30;;;10.30;;
18274;SDS011;19470;49.322;7.218;2023-08-12T13:19:20;28.90;;;22.25;;
18274;SDS011;19470;49.322;7.218;2023-08-12T13:21:47;23.02;;;13.85;;
18274;SDS011;19470;49.322;7.218;2023-08-12T13:24:13;5.07;;;3.15;;
18274;SDS011;19470;49.322;7.218;2023-08-12T13:26:40;4.88;;;4.45;;
18274;SDS011;19470;49.322;7.218;2023-08-12T13:29:08;4.38;;;3.65;;
18274;SDS011;19470;49.322;7.218;2023-08-12T13:31:34;7.55;;;4.45;;
18274;SDS011;19470;49.322;7.218;2023-08-12T13:34:01;387.08;;;235.15;;
18274;SDS011;19470;49.322;7.218;2023-08-12T13:36:28;7.03;;;6.30;;
18274;SDS011;19470;49.322;7.218;2023-08-12T13:38:55;7.97;;;7.30;;
18274;SDS011;19470;49.322;7.218;2023-08-12T13:41:22;12.20;;;11.15;;
18274;SDS011;19470;49.322;7.218;2023-08-12T13:43:48;6.90;;;5.78;;
18274;SDS011;19470;49.322;7.218;2023-08-12T13:46:16;7.75;;;6.93;;
18274;SDS011;19470;49.322;7.218;2023-08-12T13:48:42;9.68;;;8.77;;
18274;SDS011;19470;49.322;7.218;2023-08-12T13:51:09;5.22;;;3.58;;
18274;SDS011;19470;49.322;7.218;2023-08-12T13:53:35;8.02;;;4.95;;
18274;SDS011;19470;49.322;7.218;2023-08-12T13:56:02;4.75;;;4.32;;
18274;SDS011;19470;49.322;7.218;2023-08-12T13:58:29;3.97;;;3.20;;
18274;SDS011;19470;49.322;7.218;2023-08-12T14:00:55;3.25;;;2.10;;
18274;SDS011;19470;49.322;7.218;2023-08-12T14:03:23;4.45;;;3.30;;
18274;SDS011;19470;49.322;7.218;2023-08-12T14:05:50;9.60;;;2.92;;
18274;SDS011;19470;49.322;7.218;2023-08-12T14:08:16;5.72;;;2.55;;
18274;SDS011;19470;49.322;7.218;2023-08-12T14:10:44;4.55;;;2.85;;
18274;SDS011;19470;49.322;7.218;2023-08-12T14:13:11;4.25;;;3.85;;
18274;SDS011;19470;49.322;7.218;2023-08-12T14:15:38;19.38;;;17.42;;
18274;SDS011;19470;49.322;7.218;2023-08-12T14:18:04;25.38;;;22.95;;
18274;SDS011;19470;49.322;7.218;2023-08-12T14:20:32;3.97;;;2.70;;
18274;SDS011;19470;49.322;7.218;2023-08-12T14:22:59;6.10;;;4.18;;
18274;SDS011;19470;49.322;7.218;2023-08-12T14:25:25;5.82;;;2.85;;
18274;SDS011;19470;49.322;7.218;2023-08-12T14:27:52;7.18;;;5.43;;
18274;SDS011;19470;49.322;7.218;2023-08-12T14:30:18;33.72;;;15.23;;
18274;SDS011;19470;49.322;7.218;2023-08-12T14:32:45;5.00;;;3.35;;
18274;SDS011;19470;49.322;7.218;2023-08-12T14:35:12;28.80;;;19.80;;
18274;SDS011;19470;49.322;7.218;2023-08-12T14:37:40;4.15;;;2.92;;
18274;SDS011;19470;49.322;7.218;2023-08-12T14:40:07;6.00;;;4.22;;
18274;SDS011;19470;49.322;7.218;2023-08-12T14:42:34;36.03;;;30.42;;
18274;SDS011;19470;49.322;7.218;2023-08-12T14:45:01;6.43;;;2.90;;
18274;SDS011;19470;49.322;7.218;2023-08-12T14:47:27;5.78;;;3.38;;